createdAt,value
2019-05-05T10:14:39.516Z,64.91
2019-05-05T10:17:10.283Z,61.96
2019-05-05T10:19:41.054Z,61.87
2019-05-05T10:22:11.821Z,58.62
2019-05-05T10:24:44.500Z,58.32
2019-05-05T10:27:15.283Z,56.06
2019-05-05T10:29:46.073Z,53.85
2019-05-05T10:32:16.864Z,55.37
2019-05-05T10:34:49.799Z,54.24
2019-05-05T10:37:20.575Z,54.63
2019-05-05T10:39:54.368Z,54.30
2019-05-05T10:42:27.123Z,53.36
2019-05-05T10:44:57.906Z,53.99
2019-05-05T10:47:28.669Z,52.27
2019-05-05T10:49:59.450Z,50.22
2019-05-05T10:52:30.218Z,51.24
2019-05-05T10:55:01.005Z,51.12
2019-05-05T10:57:31.770Z,50.84
2019-05-05T11:00:12.242Z,53.36
2019-05-05T11:02:37.939Z,52.49
2019-05-05T11:05:09.614Z,51.58
2019-05-05T11:07:40.502Z,52.64
2019-05-05T11:10:11.284Z,54.02
2019-05-05T11:12:44.238Z,55.72
2019-05-05T11:15:14.860Z,53.10
2019-05-05T11:17:45.629Z,53.46
2019-05-05T11:20:16.501Z,52.43
2019-05-05T11:22:47.261Z,53.79
2019-05-05T11:25:18.040Z,51.94
2019-05-05T11:27:49.302Z,52.81
2019-05-05T11:30:33.983Z,49.53
2019-05-05T11:33:23.963Z,49.29
2019-05-05T11:36:05.256Z,48.59
2019-05-05T11:38:36.039Z,50.57
2019-05-05T11:41:06.813Z,48.34
2019-05-05T11:43:37.574Z,49.46
2019-05-05T11:46:08.347Z,49.76
2019-05-05T11:48:39.117Z,52.93
2019-05-05T11:51:09.909Z,54.22
2019-05-05T11:53:40.659Z,52.77
2019-05-05T11:56:11.534Z,52.18
2019-05-05T11:58:44.244Z,52.93
2019-05-05T12:01:14.982Z,52.32
2019-05-05T12:03:45.743Z,51.96
2019-05-05T12:06:16.514Z,50.63
2019-05-05T12:08:47.292Z,52.24
2019-05-05T12:11:18.082Z,54.39
2019-05-05T12:13:48.850Z,53.79
2019-05-05T12:16:29.666Z,53.83
2019-05-05T12:19:02.359Z,52.87
2019-05-05T12:21:33.723Z,54.79
2019-05-05T12:24:06.543Z,54.05
2019-05-05T12:26:43.714Z,52.23
2019-05-05T12:29:14.539Z,51.71
2019-05-05T12:31:47.017Z,50.96
2019-05-05T12:34:17.783Z,50.33
2019-05-05T12:36:48.568Z,47.89
2019-05-05T12:39:19.345Z,48.98
2019-05-05T12:41:50.114Z,46.19
2019-05-05T12:44:23.659Z,42.85
2019-05-05T12:47:03.833Z,44.66
2019-05-05T12:49:34.692Z,44.34
2019-05-05T12:52:05.475Z,46.23
2019-05-05T12:54:36.241Z,43.80
2019-05-05T12:57:07.019Z,41.44
2019-05-05T12:59:37.779Z,40.03
2019-05-05T13:02:08.662Z,40.46
2019-05-05T13:04:39.795Z,39.80
2019-05-05T13:07:10.605Z,39.92
2019-05-05T13:09:41.378Z,42.05
2019-05-05T13:12:14.849Z,42.93
2019-05-05T13:14:45.197Z,41.34
2019-05-05T13:17:16.018Z,44.93
2019-05-05T13:19:49.029Z,43.47
2019-05-05T13:22:36.867Z,48.42
2019-05-05T13:25:24.948Z,51.47
2019-05-05T13:27:57.459Z,48.98
2019-05-05T13:30:28.406Z,51.63
2019-05-05T13:32:59.180Z,55.76
2019-05-05T13:35:29.986Z,59.56
2019-05-05T13:38:00.777Z,59.22
2019-05-05T13:40:31.681Z,61.22
2019-05-05T13:43:04.257Z,59.44
2019-05-05T13:45:54.037Z,58.53
2019-05-05T13:48:24.872Z,55.12
2019-05-05T13:50:57.553Z,55.67
2019-05-05T13:53:28.322Z,57.61
2019-05-05T13:56:09.660Z,53.43
2019-05-05T13:58:31.882Z,50.88
2019-05-05T14:01:03.764Z,49.88
2019-05-05T14:03:34.701Z,46.40
2019-05-05T14:06:05.475Z,48.45
2019-05-05T14:08:36.550Z,45.10
2019-05-05T14:11:07.474Z,43.85
2019-05-05T14:13:38.268Z,41.57
2019-05-05T14:16:09.065Z,41.39
2019-05-05T14:18:40.157Z,44.04
2019-05-05T14:21:10.928Z,41.48
2019-05-05T14:23:49.450Z,44.74
2019-05-05T14:26:25.696Z,45.90
2019-05-05T14:28:53.643Z,47.09
2019-05-05T14:31:33.811Z,48.73
2019-05-05T14:34:06.660Z,46.42
2019-05-05T14:36:39.531Z,49.92
2019-05-05T14:39:12.221Z,51.08
2019-05-05T14:41:44.561Z,46.09
2019-05-05T14:44:15.383Z,43.05
2019-05-05T14:46:46.138Z,43.13
2019-05-05T14:49:16.919Z,42.18
2019-05-05T14:51:47.737Z,40.90
2019-05-05T14:54:18.562Z,41.07
2019-05-05T14:56:49.346Z,40.79
2019-05-05T14:59:20.123Z,42.76
2019-05-05T15:01:50.890Z,42.42
2019-05-05T15:04:23.922Z,41.16
2019-05-05T15:07:03.701Z,42.02
2019-05-05T15:09:48.656Z,41.96
2019-05-05T15:12:34.165Z,41.05
2019-05-05T15:15:07.244Z,40.42
2019-05-05T15:17:38.437Z,40.64
2019-05-05T15:20:09.325Z,41.26
2019-05-05T15:22:40.090Z,42.29
2019-05-05T15:25:10.962Z,42.27
2019-05-05T15:27:41.753Z,40.64
2019-05-05T15:30:13.479Z,42.76
2019-05-05T15:32:44.250Z,39.78
2019-05-05T15:35:15.033Z,43.08
2019-05-05T15:37:45.811Z,45.53
2019-05-05T15:40:16.682Z,46.54
2019-05-05T15:42:47.477Z,46.88
2019-05-05T15:45:18.351Z,46.33
2019-05-05T15:47:49.124Z,46.53
2019-05-05T15:50:20.015Z,44.82
2019-05-05T15:52:50.761Z,46.12
2019-05-05T15:55:21.583Z,44.99
2019-05-05T15:57:52.360Z,46.39
2019-05-05T16:00:25.254Z,45.54
2019-05-05T16:02:55.946Z,45.72
2019-05-05T16:05:26.822Z,44.81
2019-05-05T16:07:57.642Z,44.30
2019-05-05T16:10:28.403Z,44.37
2019-05-05T16:12:59.209Z,45.19
2019-05-05T16:15:31.957Z,44.79
2019-05-05T16:18:10.382Z,46.37
2019-05-05T16:20:45.983Z,45.39
2019-05-05T16:23:25.002Z,46.77
2019-05-05T16:25:55.811Z,46.62
2019-05-05T16:28:26.674Z,47.00
2019-05-05T16:30:57.472Z,43.20
2019-05-05T16:33:30.346Z,44.02
2019-05-05T16:36:01.849Z,39.76
2019-05-05T16:38:34.361Z,40.49
2019-05-05T16:41:05.460Z,43.17
2019-05-05T16:43:36.285Z,43.38
2019-05-05T16:46:07.175Z,41.01
2019-05-05T16:48:37.955Z,41.24
2019-05-05T16:51:10.698Z,41.76
2019-05-05T16:53:41.606Z,43.67
2019-05-05T16:56:14.391Z,41.28
2019-05-05T16:58:45.309Z,40.46
2019-05-05T17:01:16.689Z,39.56
2019-05-05T17:03:47.492Z,41.37
2019-05-05T17:06:18.364Z,40.51
2019-05-05T17:08:49.435Z,39.86
2019-05-05T17:11:20.201Z,38.36
2019-05-05T17:14:09.965Z,40.64
2019-05-05T17:16:44.189Z,42.31
2019-05-05T17:19:26.162Z,41.40
2019-05-05T17:22:07.714Z,41.16
2019-05-05T17:24:38.976Z,42.01
2019-05-05T17:27:09.895Z,42.92
2019-05-05T17:29:40.723Z,42.27
2019-05-05T17:32:11.513Z,41.36
2019-05-05T17:34:42.318Z,43.91
2019-05-05T17:37:13.513Z,40.95
2019-05-05T17:39:49.101Z,43.62
2019-05-05T17:42:27.897Z,42.27
2019-05-05T17:45:00.635Z,39.30
2019-05-05T17:47:48.253Z,41.18
2019-05-05T17:50:21.005Z,40.79
2019-05-05T17:52:56.321Z,40.91
2019-05-05T17:55:33.855Z,40.76
2019-05-05T17:58:05.409Z,40.05
2019-05-05T18:00:38.314Z,44.43
2019-05-05T18:03:09.124Z,41.57
2019-05-05T18:05:58.798Z,40.64
2019-05-05T18:08:37.577Z,41.50
2019-05-05T18:11:14.512Z,41.36
2019-05-05T18:13:48.031Z,41.37
2019-05-05T18:16:20.644Z,42.33
2019-05-05T18:18:51.435Z,42.47
2019-05-05T18:21:23.638Z,44.43
2019-05-05T18:23:54.735Z,46.04
2019-05-05T18:26:25.698Z,43.70
2019-05-05T18:28:56.455Z,47.37
2019-05-05T18:31:27.235Z,44.93
2019-05-05T18:34:00.529Z,44.03
2019-05-05T18:36:31.306Z,44.80
2019-05-05T18:39:06.798Z,47.10
2019-05-05T18:41:45.371Z,47.71
2019-05-05T18:44:24.219Z,47.41
2019-05-05T18:47:17.544Z,45.87
2019-05-05T18:49:46.264Z,48.67
2019-05-05T18:52:17.034Z,47.95
2019-05-05T18:54:47.828Z,44.77
2019-05-05T18:57:18.574Z,46.57
2019-05-05T18:59:49.351Z,46.14
2019-05-05T19:02:23.986Z,48.03
2019-05-05T19:04:56.872Z,47.08
2019-05-05T19:07:53.042Z,46.68
2019-05-05T19:10:14.987Z,46.59
2019-05-05T19:12:45.841Z,47.76
2019-05-05T19:15:16.839Z,47.99
2019-05-05T19:17:47.955Z,50.70
2019-05-05T19:20:20.694Z,47.81
2019-05-05T19:22:54.334Z,50.61
2019-05-05T19:25:26.406Z,47.08
2019-05-05T19:27:57.506Z,49.34
2019-05-05T19:30:28.464Z,51.39
2019-05-05T19:32:59.224Z,48.99
2019-05-05T19:35:41.953Z,52.91
2019-05-05T19:38:05.676Z,50.85
2019-05-05T19:40:39.350Z,53.38
2019-05-05T19:43:13.982Z,54.08
2019-05-05T19:45:45.292Z,53.41
2019-05-05T19:48:16.210Z,52.98
2019-05-05T19:50:48.961Z,53.74
2019-05-05T19:53:24.634Z,53.71
2019-05-05T19:55:56.211Z,51.85
2019-05-05T19:58:26.972Z,52.17
2019-05-05T20:01:00.062Z,51.84
2019-05-05T20:03:35.166Z,55.36
2019-05-05T20:06:07.503Z,54.03
2019-05-05T20:08:41.421Z,52.92
2019-05-05T20:11:11.001Z,53.68
2019-05-05T20:13:41.809Z,52.06
2019-05-05T20:16:17.505Z,51.93
2019-05-05T20:18:50.275Z,52.26
2019-05-05T20:21:21.007Z,51.25
2019-05-05T20:23:51.776Z,51.87
2019-05-05T20:26:25.026Z,52.74
2019-05-05T20:29:10.244Z,52.42
2019-05-05T20:31:34.573Z,55.60
2019-05-05T20:34:13.557Z,55.86
2019-05-05T20:37:04.414Z,55.30
2019-05-05T20:39:37.249Z,56.48
2019-05-05T20:42:08.166Z,55.75
2019-05-05T20:44:39.139Z,57.80
2019-05-05T20:47:09.916Z,58.18
2019-05-05T20:49:40.941Z,57.73
2019-05-05T20:52:14.008Z,59.90
2019-05-05T20:54:47.335Z,59.47
2019-05-05T20:57:18.109Z,57.68
2019-05-05T20:59:48.872Z,56.77
2019-05-05T21:02:19.650Z,59.80
2019-05-05T21:04:50.448Z,59.25
2019-05-05T21:07:25.851Z,60.38
2019-05-05T21:09:53.926Z,58.47
2019-05-05T21:12:38.498Z,59.43
2019-05-05T21:14:57.430Z,59.68
2019-05-05T21:17:28.236Z,59.53
2019-05-05T21:19:58.978Z,61.00
2019-05-05T21:22:37.364Z,61.52
2019-05-05T21:25:23.919Z,61.11
2019-05-05T21:27:54.969Z,60.18
2019-05-05T21:30:25.732Z,60.49
2019-05-05T21:32:56.512Z,59.97
2019-05-05T21:35:27.579Z,61.86
2019-05-05T21:37:58.380Z,62.27
2019-05-05T21:40:29.151Z,61.95
2019-05-05T21:43:00.291Z,62.56
2019-05-05T21:45:31.342Z,61.14
2019-05-05T21:48:04.266Z,62.88
2019-05-05T21:50:36.923Z,62.24
2019-05-05T21:53:14.078Z,62.59
2019-05-05T21:55:55.975Z,60.67
2019-05-05T21:58:28.691Z,61.17
2019-05-05T22:01:07.615Z,63.01
2019-05-05T22:03:39.015Z,62.55
2019-05-05T22:06:09.854Z,62.07
2019-05-05T22:08:40.653Z,63.54
2019-05-05T22:11:11.436Z,63.56
2019-05-05T22:13:44.226Z,64.80
2019-05-05T22:16:14.943Z,63.93
2019-05-05T22:18:46.695Z,65.08
2019-05-05T22:21:22.264Z,63.54
2019-05-05T22:24:13.722Z,65.05
2019-05-05T22:26:45.190Z,64.93
2019-05-05T22:29:17.027Z,65.41
2019-05-05T22:31:48.254Z,65.90
2019-05-05T22:34:19.023Z,66.09
2019-05-05T22:36:49.812Z,66.70
2019-05-05T22:39:20.657Z,67.50
2019-05-05T22:41:54.137Z,67.94
2019-05-05T22:44:24.496Z,68.01
2019-05-05T22:46:55.317Z,67.89
2019-05-05T22:49:26.082Z,68.47
2019-05-05T22:51:57.060Z,67.87
2019-05-05T22:54:27.846Z,66.54
2019-05-05T22:56:58.589Z,67.62
2019-05-05T22:59:29.362Z,67.69
2019-05-05T23:02:00.129Z,67.65
2019-05-05T23:04:34.765Z,68.90
2019-05-05T23:07:07.408Z,68.42
2019-05-05T23:09:38.189Z,66.49
2019-05-05T23:12:08.960Z,67.16
2019-05-05T23:14:39.736Z,67.68
2019-05-05T23:17:21.232Z,68.63
2019-05-05T23:19:59.811Z,67.81
2019-05-05T23:22:34.690Z,69.12
2019-05-05T23:25:24.142Z,69.63
2019-05-05T23:27:55.101Z,69.71
2019-05-05T23:30:38.724Z,68.09
2019-05-05T23:32:58.573Z,67.15
2019-05-05T23:35:29.361Z,66.51
2019-05-05T23:38:00.130Z,67.52
2019-05-05T23:40:30.906Z,68.73
2019-05-05T23:43:01.721Z,68.69
2019-05-05T23:45:34.090Z,69.57
2019-05-05T23:48:05.301Z,69.88
2019-05-05T23:50:36.092Z,68.60
2019-05-05T23:53:06.905Z,67.67
2019-05-05T23:55:37.671Z,67.46
2019-05-05T23:58:08.450Z,68.42
